createdAt,value
2023-07-15T00:00:15.535Z,25.10
2023-07-15T00:02:46.495Z,25.00
2023-07-15T00:05:26.773Z,25.00
2023-07-15T00:07:53.708Z,25.00
2023-07-15T00:10:22.465Z,25.00
2023-07-15T00:12:49.536Z,25.00
2023-07-15T00:15:19.069Z,24.80
2023-07-15T00:17:45.941Z,24.60
2023-07-15T00:20:22.853Z,24.50
2023-07-15T00:22:50.326Z,24.40
2023-07-15T00:25:25.233Z,24.30
2023-07-15T00:27:51.968Z,24.30
2023-07-15T00:30:20.529Z,24.30
2023-07-15T00:32:49.528Z,24.30
2023-07-15T00:35:30.858Z,24.30
2023-07-15T00:38:01.684Z,24.30
2023-07-15T00:40:33.600Z,24.30
2023-07-15T00:43:38.217Z,24.40
2023-07-15T00:46:46.189Z,24.40
2023-07-15T00:49:31.918Z,24.50
2023-07-15T00:52:06.310Z,24.60
2023-07-15T00:54:36.688Z,25.00
2023-07-15T00:57:04.734Z,25.30
2023-07-15T00:59:32.616Z,25.20
2023-07-15T01:01:59.842Z,25.20
2023-07-15T01:04:28.986Z,25.30
2023-07-15T01:06:56.691Z,25.40
2023-07-15T01:09:26.810Z,25.50
2023-07-15T01:11:57.179Z,25.50
2023-07-15T01:14:27.485Z,25.50
2023-07-15T01:16:56.817Z,25.50
2023-07-15T01:19:23.817Z,25.60
2023-07-15T01:21:51.858Z,25.60
2023-07-15T01:24:19.829Z,25.50
2023-07-15T01:26:48.821Z,25.50
2023-07-15T01:29:18.154Z,25.40
2023-07-15T01:31:45.190Z,25.50
2023-07-15T01:34:14.753Z,25.50
2023-07-15T01:36:41.541Z,25.60
2023-07-15T01:39:11.029Z,25.70
2023-07-15T01:41:40.163Z,25.80
2023-07-15T01:44:09.117Z,25.80
2023-07-15T01:46:37.478Z,25.60
2023-07-15T01:49:05.135Z,25.60
2023-07-15T01:51:32.071Z,25.80
2023-07-15T01:54:01.600Z,25.70
2023-07-15T01:56:31.948Z,25.80
2023-07-15T01:58:58.955Z,25.50
2023-07-15T02:01:29.256Z,25.30
2023-07-15T02:03:56.322Z,25.50
2023-07-15T02:06:23.588Z,25.60
2023-07-15T02:08:50.457Z,25.60
2023-07-15T02:11:19.485Z,25.60
2023-07-15T02:13:51.559Z,25.60
2023-07-15T02:16:18.353Z,25.70
2023-07-15T02:18:45.239Z,25.70
2023-07-15T02:21:12.077Z,25.80
2023-07-15T02:23:41.565Z,25.70
2023-07-15T02:26:08.424Z,25.60
2023-07-15T02:28:35.311Z,25.60
2023-07-15T02:31:02.213Z,25.40
2023-07-15T02:33:31.163Z,25.00
2023-07-15T02:35:57.971Z,24.60
2023-07-15T02:38:24.751Z,24.40
2023-07-15T02:40:51.515Z,24.10
2023-07-15T02:43:20.538Z,24.00
2023-07-15T02:45:53.688Z,24.10
2023-07-15T02:48:21.214Z,24.20
2023-07-15T02:50:57.454Z,24.40
2023-07-15T02:53:24.503Z,24.20
2023-07-15T02:55:51.797Z,24.10
2023-07-15T02:58:18.619Z,24.10
2023-07-15T03:00:48.937Z,24.10
2023-07-15T03:03:15.696Z,24.20
2023-07-15T03:05:52.314Z,24.30
2023-07-15T03:08:21.607Z,24.20
2023-07-15T03:10:51.014Z,24.10
2023-07-15T03:13:17.775Z,24.00
2023-07-15T03:15:47.797Z,24.00
2023-07-15T03:18:22.437Z,24.00
2023-07-15T03:20:52.124Z,24.10
2023-07-15T03:23:21.413Z,24.10
2023-07-15T03:25:48.188Z,24.00
2023-07-15T03:28:15.118Z,23.90
2023-07-15T03:30:42.937Z,23.90
2023-07-15T03:33:09.759Z,23.80
2023-07-15T03:35:44.541Z,24.00
2023-07-15T03:38:11.290Z,23.90
2023-07-15T03:40:38.382Z,23.90
2023-07-15T03:43:05.129Z,23.90
2023-07-15T03:45:34.089Z,23.80
2023-07-15T03:48:01.064Z,23.70
2023-07-15T03:50:30.200Z,23.80
2023-07-15T03:52:57.418Z,23.80
2023-07-15T03:55:24.509Z,23.80
2023-07-15T03:57:51.277Z,23.80
2023-07-15T04:00:20.739Z,23.70
2023-07-15T04:02:50.486Z,23.70
2023-07-15T04:05:19.762Z,23.70
2023-07-15T04:07:47.032Z,23.70
2023-07-15T04:10:13.781Z,23.80
2023-07-15T04:12:42.698Z,23.80
2023-07-15T04:15:14.491Z,23.80
2023-07-15T04:17:41.257Z,23.90
2023-07-15T04:20:15.651Z,24.00
2023-07-15T04:22:42.874Z,23.90
2023-07-15T04:25:12.838Z,23.90
2023-07-15T04:27:40.445Z,23.90
2023-07-15T04:30:09.690Z,23.90
2023-07-15T04:32:39.200Z,23.90
2023-07-15T04:35:09.052Z,23.90
2023-07-15T04:37:41.908Z,23.90
2023-07-15T04:40:09.132Z,24.00
2023-07-15T04:42:35.968Z,24.00
2023-07-15T04:45:05.523Z,24.10
2023-07-15T04:47:33.944Z,24.10
2023-07-15T04:50:00.803Z,24.10
2023-07-15T04:52:27.683Z,24.10
2023-07-15T04:54:56.856Z,24.00
2023-07-15T04:57:26.915Z,24.10
2023-07-15T04:59:54.459Z,24.00
2023-07-15T05:02:26.185Z,24.10
2023-07-15T05:04:54.069Z,24.10
2023-07-15T05:07:23.005Z,24.20
2023-07-15T05:09:55.332Z,24.20
2023-07-15T05:12:25.778Z,24.20
2023-07-15T05:14:53.748Z,24.20
2023-07-15T05:17:20.667Z,24.20
2023-07-15T05:19:50.694Z,24.30
2023-07-15T05:22:20.554Z,24.20
2023-07-15T05:24:50.809Z,24.20
2023-07-15T05:27:17.945Z,24.20
2023-07-15T05:29:46.573Z,24.20
2023-07-15T05:32:13.440Z,24.20
2023-07-15T05:34:40.694Z,24.20
2023-07-15T05:37:07.573Z,24.10
2023-07-15T05:39:34.644Z,24.10
2023-07-15T05:42:01.680Z,24.10
2023-07-15T05:44:28.473Z,24.10
2023-07-15T05:46:55.216Z,24.10
2023-07-15T05:49:21.926Z,24.10
2023-07-15T05:51:49.060Z,24.20
2023-07-15T05:54:17.063Z,24.20
2023-07-15T05:56:47.424Z,24.20
2023-07-15T05:59:19.810Z,24.20
2023-07-15T06:01:49.118Z,24.40
2023-07-15T06:04:16.354Z,24.60
2023-07-15T06:06:46.057Z,24.50
2023-07-15T06:09:13.201Z,24.60
2023-07-15T06:11:40.046Z,24.50
2023-07-15T06:14:11.967Z,24.60
2023-07-15T06:16:38.738Z,24.60
2023-07-15T06:19:08.613Z,24.70
2023-07-15T06:21:37.630Z,24.80
2023-07-15T06:24:04.897Z,24.70
2023-07-15T06:26:34.222Z,24.70
2023-07-15T06:29:01.464Z,24.70
2023-07-15T06:31:28.619Z,24.70
2023-07-15T06:33:55.396Z,24.70
2023-07-15T06:36:25.125Z,24.70
2023-07-15T06:38:53.946Z,24.80
2023-07-15T06:41:22.828Z,24.90
2023-07-15T06:43:51.695Z,24.90
2023-07-15T06:46:18.631Z,25.00
2023-07-15T06:48:49.479Z,25.00
2023-07-15T06:51:16.666Z,25.10
2023-07-15T06:53:43.759Z,25.10
2023-07-15T06:56:20.177Z,25.20
2023-07-15T06:58:48.367Z,25.30
2023-07-15T07:01:17.653Z,25.50
2023-07-15T07:03:51.344Z,25.60
2023-07-15T07:06:18.240Z,25.60
2023-07-15T07:08:48.688Z,25.80
2023-07-15T07:11:15.670Z,25.90
2023-07-15T07:13:44.846Z,25.60
2023-07-15T07:16:11.706Z,25.50
2023-07-15T07:18:38.783Z,25.50
2023-07-15T07:21:08.692Z,25.50
2023-07-15T07:23:40.337Z,25.40
2023-07-15T07:26:07.340Z,25.50
2023-07-15T07:28:45.570Z,25.60
2023-07-15T07:31:13.814Z,25.60
2023-07-15T07:33:44.987Z,25.60
2023-07-15T07:36:12.173Z,25.60
2023-07-15T07:38:38.894Z,25.70
2023-07-15T07:41:13.252Z,25.60
2023-07-15T07:43:40.890Z,25.70
2023-07-15T07:46:12.786Z,25.80
2023-07-15T07:48:42.085Z,25.80
2023-07-15T07:51:13.740Z,26.00
2023-07-15T07:53:43.535Z,25.90
2023-07-15T07:56:14.629Z,25.80
2023-07-15T07:58:45.112Z,25.90
2023-07-15T08:01:13.194Z,25.80
2023-07-15T08:03:43.007Z,25.80
2023-07-15T08:06:09.996Z,25.80
2023-07-15T08:08:38.927Z,25.80
2023-07-15T08:11:05.710Z,25.90
2023-07-15T08:13:34.818Z,26.00
2023-07-15T08:16:04.338Z,25.90
2023-07-15T08:18:31.260Z,26.00
2023-07-15T08:20:58.077Z,26.20
2023-07-15T08:23:27.199Z,26.20
2023-07-15T08:25:58.719Z,26.10
2023-07-15T08:28:25.493Z,26.20
2023-07-15T08:30:52.264Z,26.30
2023-07-15T08:33:19.056Z,26.30
2023-07-15T08:35:46.818Z,26.20
2023-07-15T08:38:13.526Z,26.10
2023-07-15T08:40:43.472Z,26.10
2023-07-15T08:43:14.202Z,26.20
2023-07-15T08:45:43.672Z,26.20
2023-07-15T08:48:11.115Z,26.20
2023-07-15T08:50:40.413Z,26.30
2023-07-15T08:53:07.229Z,26.30
2023-07-15T08:55:34.948Z,26.20
2023-07-15T08:58:02.312Z,26.10
2023-07-15T09:00:29.252Z,26.00
2023-07-15T09:02:56.192Z,26.00
2023-07-15T09:05:25.431Z,26.00
2023-07-15T09:07:56.183Z,25.90
2023-07-15T09:10:29.591Z,25.90
2023-07-15T09:12:56.956Z,25.80
2023-07-15T09:15:26.336Z,25.70
2023-07-15T09:18:02.961Z,25.70
2023-07-15T09:20:32.120Z,25.60
2023-07-15T09:23:02.800Z,25.60
2023-07-15T09:25:29.734Z,25.60
2023-07-15T09:27:56.657Z,25.60
2023-07-15T09:30:26.188Z,25.50
2023-07-15T09:32:53.044Z,25.50
2023-07-15T09:35:22.062Z,25.50
2023-07-15T09:37:52.682Z,25.50
2023-07-15T09:40:19.540Z,25.50
2023-07-15T09:42:54.586Z,25.30
2023-07-15T09:45:35.238Z,25.10
2023-07-15T09:48:04.262Z,25.10
2023-07-15T09:50:37.389Z,25.10
2023-07-15T09:53:05.418Z,25.00
2023-07-15T09:55:34.546Z,24.90
2023-07-15T09:58:10.884Z,24.90
2023-07-15T10:00:46.520Z,24.90
2023-07-15T10:03:23.898Z,24.90
2023-07-15T10:05:54.117Z,24.90
2023-07-15T10:08:21.595Z,24.80
2023-07-15T10:10:51.445Z,24.90
2023-07-15T10:13:19.348Z,25.10
2023-07-15T10:15:48.849Z,25.10
2023-07-15T10:18:19.631Z,25.10
2023-07-15T10:21:15.755Z,25.20
2023-07-15T10:23:42.772Z,25.30
2023-07-15T10:26:12.692Z,25.20
2023-07-15T10:28:41.531Z,25.30
2023-07-15T10:31:09.243Z,25.50
2023-07-15T10:33:42.429Z,25.50
2023-07-15T10:36:09.796Z,25.30
2023-07-15T10:38:38.935Z,25.30
2023-07-15T10:41:11.465Z,25.30
2023-07-15T10:43:40.395Z,25.40
2023-07-15T10:46:12.798Z,25.50
2023-07-15T10:48:40.746Z,25.50
2023-07-15T10:51:10.057Z,25.50
2023-07-15T10:53:40.093Z,25.50
2023-07-15T10:56:12.096Z,25.60
2023-07-15T10:58:44.349Z,25.60
2023-07-15T11:01:13.562Z,25.60
2023-07-15T11:03:45.323Z,25.70
2023-07-15T11:06:15.547Z,25.80
2023-07-15T11:08:47.935Z,25.90
2023-07-15T11:11:14.914Z,25.80
2023-07-15T11:13:43.150Z,25.80
2023-07-15T11:16:12.688Z,26.00
2023-07-15T11:18:42.114Z,26.10
2023-07-15T11:21:11.709Z,26.10
2023-07-15T11:23:39.164Z,26.10
2023-07-15T11:26:10.139Z,26.10
2023-07-15T11:28:50.441Z,26.00
2023-07-15T11:31:22.046Z,26.00
2023-07-15T11:33:58.240Z,25.90
2023-07-15T11:36:27.256Z,26.00
2023-07-15T11:38:54.123Z,26.10
2023-07-15T11:41:21.108Z,26.10
2023-07-15T11:43:50.650Z,26.20
2023-07-15T11:46:17.806Z,26.20
2023-07-15T11:48:47.112Z,26.20
2023-07-15T11:51:13.863Z,26.30
2023-07-15T11:53:46.442Z,26.20
2023-07-15T11:56:37.571Z,26.20
2023-07-15T11:59:07.686Z,26.20
2023-07-15T12:01:35.271Z,26.20
2023-07-15T12:04:02.340Z,26.30
2023-07-15T12:06:32.340Z,26.30
2023-07-15T12:09:13.688Z,26.20
2023-07-15T12:11:40.473Z,26.20
2023-07-15T12:14:10.362Z,26.20
2023-07-15T12:16:39.171Z,26.10
2023-07-15T12:19:10.530Z,26.20
2023-07-15T12:21:42.581Z,26.30
2023-07-15T12:24:09.682Z,26.30
2023-07-15T12:26:36.735Z,26.30
2023-07-15T12:29:03.727Z,26.30
2023-07-15T12:31:33.060Z,26.20
2023-07-15T12:33:59.914Z,26.10
2023-07-15T12:36:26.683Z,26.20
2023-07-15T12:38:53.760Z,26.30
2023-07-15T12:41:20.742Z,26.30
2023-07-15T12:43:47.557Z,26.40
2023-07-15T12:46:14.695Z,26.40
2023-07-15T12:48:41.820Z,26.50
2023-07-15T12:51:08.612Z,26.60
2023-07-15T12:53:35.435Z,26.60
2023-07-15T12:56:02.237Z,26.70
2023-07-15T12:58:29.037Z,27.00
2023-07-15T13:00:58.583Z,27.10
2023-07-15T13:03:28.776Z,27.10
2023-07-15T13:05:55.848Z,27.10
2023-07-15T13:08:22.777Z,27.10
2023-07-15T13:10:54.850Z,27.10
2023-07-15T13:13:22.883Z,27.10
2023-07-15T13:15:50.545Z,27.10
2023-07-15T13:20:45.350Z,27.00
2023-07-15T13:23:12.166Z,27.10
2023-07-15T13:25:41.139Z,27.10
2023-07-15T13:28:07.956Z,27.40
2023-07-15T13:30:35.437Z,27.50
2023-07-15T13:33:04.636Z,27.50
2023-07-15T13:35:33.921Z,27.50
2023-07-15T13:38:00.710Z,27.30
2023-07-15T13:40:29.642Z,27.20
2023-07-15T13:42:56.601Z,27.20
2023-07-15T13:45:25.573Z,27.20
2023-07-15T13:47:53.681Z,27.10
2023-07-15T13:50:20.939Z,27.10
2023-07-15T13:52:52.628Z,27.10
2023-07-15T13:55:21.986Z,27.10
2023-07-15T13:57:48.817Z,27.10
2023-07-15T14:00:15.938Z,27.10
2023-07-15T14:02:43.023Z,27.10
2023-07-15T14:05:11.057Z,27.10
2023-07-15T14:07:38.110Z,27.10
2023-07-15T14:10:10.624Z,27.10
2023-07-15T14:12:39.642Z,27.10
2023-07-15T14:15:10.259Z,27.10
2023-07-15T14:17:39.690Z,27.30
2023-07-15T14:20:07.573Z,27.30
2023-07-15T14:22:48.344Z,27.40
2023-07-15T14:25:19.641Z,27.60
2023-07-15T14:27:46.811Z,28.00
2023-07-15T14:30:13.573Z,28.30
2023-07-15T14:32:40.508Z,28.50
2023-07-15T14:35:07.636Z,28.70
2023-07-15T14:37:34.349Z,28.90
2023-07-15T14:40:01.136Z,29.10
2023-07-15T14:42:27.968Z,29.20
2023-07-15T14:44:57.171Z,29.20
2023-07-15T14:47:23.960Z,29.10
2023-07-15T14:49:53.068Z,29.00
2023-07-15T14:52:19.726Z,28.80
2023-07-15T14:54:46.433Z,28.70
2023-07-15T14:57:13.164Z,28.50
2023-07-15T14:59:42.173Z,28.40
2023-07-15T15:02:08.905Z,28.30
2023-07-15T15:04:35.707Z,28.20
2023-07-15T15:07:04.587Z,28.30
2023-07-15T15:09:31.329Z,28.20
2023-07-15T15:12:03.369Z,28.00
2023-07-15T15:14:33.040Z,27.90
2023-07-15T15:16:59.836Z,28.00
2023-07-15T15:19:27.484Z,28.20
2023-07-15T15:21:58.867Z,28.60
2023-07-15T15:24:28.963Z,28.80
2023-07-15T15:26:56.809Z,29.00
2023-07-15T15:29:24.989Z,29.10
2023-07-15T15:31:54.461Z,29.10
2023-07-15T15:34:21.226Z,29.10
2023-07-15T15:36:50.597Z,29.00
2023-07-15T15:39:19.889Z,29.10
2023-07-15T15:41:46.597Z,28.90
2023-07-15T15:44:15.624Z,28.90
2023-07-15T15:46:42.398Z,28.90
2023-07-15T15:49:11.336Z,28.90
2023-07-15T15:51:40.446Z,29.10
2023-07-15T15:54:08.101Z,29.10
2023-07-15T15:56:39.830Z,29.20
2023-07-15T15:59:06.932Z,29.30
2023-07-15T16:01:36.140Z,29.50
2023-07-15T16:04:07.695Z,29.70
2023-07-15T16:06:39.835Z,29.90
2023-07-15T16:09:08.019Z,30.00
2023-07-15T16:11:38.758Z,30.00
2023-07-15T16:14:05.533Z,30.00
2023-07-15T16:16:32.271Z,30.00
2023-07-15T16:19:02.441Z,30.00
2023-07-15T16:21:29.163Z,29.90
2023-07-15T16:23:58.115Z,29.80
2023-07-15T16:26:28.014Z,29.80
2023-07-15T16:28:54.771Z,29.60
2023-07-15T16:31:21.508Z,29.50
2023-07-15T16:33:50.489Z,29.40
2023-07-15T16:36:22.018Z,29.30
2023-07-15T16:38:48.792Z,29.20
2023-07-15T16:41:15.664Z,29.10
2023-07-15T16:43:42.518Z,29.10
2023-07-15T16:46:11.475Z,29.20
2023-07-15T16:48:38.188Z,29.20
2023-07-15T16:51:04.942Z,29.20
2023-07-15T16:53:33.868Z,29.30
2023-07-15T16:56:02.723Z,29.30
2023-07-15T16:58:29.472Z,29.30
2023-07-15T17:00:57.292Z,29.10
2023-07-15T17:03:24.067Z,29.00
2023-07-15T17:05:53.368Z,29.00
2023-07-15T17:08:23.592Z,28.80
2023-07-15T17:10:50.297Z,28.70
2023-07-15T17:13:17.084Z,28.60
2023-07-15T17:15:43.837Z,28.60
2023-07-15T17:18:12.818Z,28.40
2023-07-15T17:20:39.608Z,28.50
2023-07-15T17:23:08.771Z,28.40
2023-07-15T17:25:40.046Z,28.30
2023-07-15T17:28:06.964Z,28.30
2023-07-15T17:30:36.456Z,28.30
2023-07-15T17:33:05.561Z,28.20
2023-07-15T17:35:32.707Z,28.10
2023-07-15T17:38:01.844Z,28.10
2023-07-15T17:40:30.766Z,28.00
2023-07-15T17:42:57.470Z,28.00
2023-07-15T17:45:26.458Z,27.80
2023-07-15T17:47:53.150Z,27.60
2023-07-15T17:50:24.556Z,27.40
2023-07-15T17:52:56.010Z,27.30
2023-07-15T17:55:25.677Z,27.20
2023-07-15T17:57:53.248Z,27.10
2023-07-15T18:00:25.096Z,27.20
2023-07-15T18:02:52.325Z,27.30
2023-07-15T18:05:19.318Z,27.30
2023-07-15T18:07:48.932Z,27.20
2023-07-15T18:10:15.727Z,27.10
2023-07-15T18:12:42.404Z,27.10
2023-07-15T18:15:12.916Z,27.00
2023-07-15T18:17:39.675Z,27.10
2023-07-15T18:20:07.372Z,27.10
2023-07-15T18:22:34.382Z,27.10
2023-07-15T18:25:01.186Z,27.10
2023-07-15T18:27:30.665Z,27.00
2023-07-15T18:30:00.533Z,26.60
2023-07-15T18:32:27.306Z,26.00
2023-07-15T18:34:58.435Z,25.60
2023-07-15T18:37:28.439Z,25.30
2023-07-15T18:39:57.668Z,25.00
2023-07-15T18:42:24.700Z,25.00
2023-07-15T18:44:54.165Z,25.00
2023-07-15T18:47:20.930Z,24.60
2023-07-15T18:49:47.690Z,24.20
2023-07-15T18:52:16.856Z,24.10
2023-07-15T18:54:43.631Z,24.00
2023-07-15T18:57:21.649Z,24.10
2023-07-15T18:59:50.274Z,24.10
2023-07-15T19:02:19.308Z,23.80
2023-07-15T19:04:47.975Z,23.60
2023-07-15T19:07:14.878Z,23.50
2023-07-15T19:09:41.607Z,23.40
2023-07-15T19:12:09.843Z,23.20
2023-07-15T19:14:36.704Z,23.00
2023-07-15T19:17:03.814Z,23.10
2023-07-15T19:19:32.944Z,23.10
2023-07-15T19:22:01.918Z,23.10
2023-07-15T19:24:28.730Z,23.00
2023-07-15T19:26:55.487Z,23.10
2023-07-15T19:29:22.450Z,23.30
2023-07-15T19:31:49.237Z,23.20
2023-07-15T19:34:18.517Z,23.20
2023-07-15T19:36:47.783Z,23.10
2023-07-15T19:39:14.527Z,23.30
2023-07-15T19:41:42.345Z,23.40
2023-07-15T19:44:09.046Z,23.30
2023-07-15T19:46:37.207Z,23.20
2023-07-15T19:49:09.032Z,23.60
2023-07-15T19:54:10.260Z,23.50
2023-07-15T19:56:39.680Z,23.40
2023-07-15T19:59:07.310Z,23.40
2023-07-15T20:01:34.782Z,23.50
2023-07-15T20:04:07.689Z,23.50
2023-07-15T20:06:38.903Z,23.20
2023-07-15T20:09:05.672Z,23.20
2023-07-15T20:11:37.331Z,23.10
2023-07-15T20:14:04.302Z,23.00
2023-07-15T20:16:31.133Z,23.20
2023-07-15T20:19:02.497Z,23.30
2023-07-15T20:21:34.049Z,23.50
2023-07-15T20:24:05.151Z,23.80
2023-07-15T20:26:32.123Z,24.00
2023-07-15T20:29:03.503Z,23.80
2023-07-15T20:31:30.448Z,23.90
2023-07-15T20:33:57.288Z,24.30
2023-07-15T20:36:26.521Z,24.20
2023-07-15T20:38:53.397Z,24.50
2023-07-15T20:41:20.204Z,24.50
2023-07-15T20:43:47.364Z,24.50
2023-07-15T20:46:14.641Z,24.50
2023-07-15T20:48:43.923Z,24.50
2023-07-15T20:51:10.807Z,24.60
2023-07-15T20:53:38.030Z,24.60
2023-07-15T20:56:07.296Z,24.70
2023-07-15T20:58:34.232Z,24.60
2023-07-15T21:01:03.576Z,24.60
2023-07-15T21:03:36.166Z,24.40
2023-07-15T21:06:04.938Z,24.10
2023-07-15T21:08:31.808Z,24.10
2023-07-15T21:11:01.786Z,24.30
2023-07-15T21:13:29.093Z,24.40
2023-07-15T21:16:01.887Z,24.60
2023-07-15T21:18:28.750Z,24.70
2023-07-15T21:20:55.456Z,24.80
2023-07-15T21:23:22.260Z,24.60
2023-07-15T21:25:52.347Z,24.50
2023-07-15T21:28:36.159Z,24.60
2023-07-15T21:31:03.948Z,24.40
2023-07-15T21:33:31.004Z,24.20
2023-07-15T21:35:57.862Z,24.40
2023-07-15T21:38:25.215Z,24.60
2023-07-15T21:40:54.143Z,24.60
2023-07-15T21:43:20.929Z,24.10
2023-07-15T21:45:47.787Z,23.70
2023-07-15T21:48:15.498Z,23.50
2023-07-15T21:50:42.321Z,23.50
2023-07-15T21:53:12.262Z,23.30
2023-07-15T21:55:39.426Z,23.10
2023-07-15T21:58:10.664Z,23.10
2023-07-15T22:00:40.115Z,23.60
2023-07-15T22:03:06.958Z,23.80
2023-07-15T22:05:33.859Z,24.00
2023-07-15T22:08:00.775Z,23.90
2023-07-15T22:10:32.285Z,24.00
2023-07-15T22:12:58.974Z,24.10
2023-07-15T22:15:25.646Z,24.10
2023-07-15T22:20:43.479Z,23.80
2023-07-15T22:23:13.384Z,23.40
2023-07-15T22:25:42.661Z,23.30
2023-07-15T22:28:09.485Z,23.20
2023-07-15T22:30:36.186Z,23.20
2023-07-15T22:33:02.889Z,23.20
2023-07-15T22:35:29.638Z,23.40
2023-07-15T22:37:56.538Z,23.30
2023-07-15T22:40:23.628Z,23.60
2023-07-15T22:42:50.330Z,23.30
2023-07-15T22:45:17.100Z,23.10
2023-07-15T22:47:43.851Z,23.00
2023-07-15T22:50:11.138Z,23.10
2023-07-15T22:52:38.580Z,23.20
2023-07-15T22:55:05.676Z,23.40
2023-07-15T22:57:34.930Z,23.50
2023-07-15T23:00:01.785Z,23.40
2023-07-15T23:02:31.194Z,23.40
2023-07-15T23:04:58.035Z,23.40
2023-07-15T23:07:24.718Z,23.30
2023-07-15T23:09:51.423Z,23.10
2023-07-15T23:12:20.532Z,23.00
2023-07-15T23:14:49.518Z,23.10
2023-07-15T23:17:19.737Z,23.10
2023-07-15T23:19:48.964Z,23.10
2023-07-15T23:22:15.737Z,23.30
2023-07-15T23:24:42.563Z,23.10
2023-07-15T23:27:09.287Z,23.20
2023-07-15T23:29:35.990Z,23.50
2023-07-15T23:32:02.763Z,23.40
2023-07-15T23:34:29.508Z,23.60
2023-07-15T23:36:58.817Z,23.60
2023-07-15T23:39:25.571Z,23.50
2023-07-15T23:41:52.329Z,23.60
2023-07-15T23:44:19.135Z,23.80
2023-07-15T23:46:45.881Z,23.90
2023-07-15T23:49:15.116Z,23.90
2023-07-15T23:51:41.915Z,23.90
2023-07-15T23:54:08.602Z,23.70
2023-07-15T23:56:37.772Z,23.60
2023-07-15T23:59:04.774Z,23.40
